createdAt,value
2022-10-18T00:00:48.425Z,100.00
2022-10-18T00:03:17.524Z,100.00
2022-10-18T00:05:44.534Z,100.00
2022-10-18T00:08:11.749Z,100.00
2022-10-18T00:10:38.419Z,100.00
2022-10-18T00:13:05.587Z,100.00
2022-10-18T00:15:32.638Z,99.97
2022-10-18T00:17:59.684Z,99.80
2022-10-18T00:20:26.785Z,99.96
2022-10-18T00:22:54.323Z,99.97
2022-10-18T00:25:20.968Z,100.00
2022-10-18T00:27:47.796Z,100.00
2022-10-18T00:30:14.581Z,100.00
2022-10-18T00:32:41.994Z,100.00
2022-10-18T00:35:08.998Z,100.00
2022-10-18T00:37:35.997Z,100.00
2022-10-18T00:40:04.147Z,100.00
2022-10-18T00:42:34.543Z,100.00
2022-10-18T00:45:01.198Z,100.00
2022-10-18T00:47:28.112Z,100.00
2022-10-18T00:49:58.478Z,100.00
2022-10-18T00:52:35.154Z,100.00
2022-10-18T00:55:03.350Z,100.00
2022-10-18T00:57:31.113Z,100.00
2022-10-18T00:59:58.365Z,100.00
2022-10-18T01:02:26.525Z,100.00
2022-10-18T01:04:52.989Z,100.00
2022-10-18T01:07:42.867Z,100.00
2022-10-18T01:10:28.153Z,100.00
2022-10-18T01:13:05.229Z,100.00
2022-10-18T01:15:43.429Z,100.00
2022-10-18T01:18:25.420Z,100.00
2022-10-18T01:21:00.544Z,100.00
2022-10-18T01:23:39.219Z,100.00
2022-10-18T01:26:33.445Z,100.00
2022-10-18T01:29:18.379Z,100.00
2022-10-18T01:31:57.644Z,100.00
2022-10-18T01:34:31.637Z,100.00
2022-10-18T01:37:01.097Z,100.00
2022-10-18T01:39:32.118Z,100.00
2022-10-18T01:42:05.778Z,100.00
2022-10-18T01:44:34.468Z,100.00
2022-10-18T01:47:01.128Z,100.00
2022-10-18T01:49:27.754Z,100.00
2022-10-18T01:51:54.434Z,100.00
2022-10-18T01:54:42.915Z,100.00
2022-10-18T01:57:31.694Z,100.00
2022-10-18T02:00:23.533Z,100.00
2022-10-18T02:03:01.735Z,100.00
2022-10-18T02:05:52.600Z,100.00
2022-10-18T02:08:33.225Z,100.00
2022-10-18T02:11:12.953Z,100.00
2022-10-18T02:13:45.633Z,100.00
2022-10-18T02:16:25.614Z,99.92
2022-10-18T02:19:15.316Z,99.94
2022-10-18T02:21:45.915Z,99.99
2022-10-18T02:24:25.436Z,100.00
2022-10-18T02:26:52.025Z,100.00
2022-10-18T02:29:18.682Z,100.00
2022-10-18T02:31:49.095Z,99.91
2022-10-18T02:34:34.494Z,99.99
2022-10-18T02:37:02.749Z,99.87
2022-10-18T02:39:41.417Z,99.85
2022-10-18T02:42:10.347Z,99.95
2022-10-18T02:44:38.069Z,99.91
2022-10-18T02:47:06.513Z,99.96
2022-10-18T02:49:33.392Z,99.97
2022-10-18T02:52:00.016Z,99.84
2022-10-18T02:54:26.764Z,99.91
2022-10-18T02:56:53.233Z,99.98
2022-10-18T02:59:21.584Z,99.84
2022-10-18T03:01:48.391Z,99.84
2022-10-18T03:04:15.185Z,99.68
2022-10-18T03:06:42.123Z,99.83
2022-10-18T03:09:09.610Z,99.94
2022-10-18T03:11:36.468Z,99.93
2022-10-18T03:14:02.916Z,99.98
2022-10-18T03:16:29.578Z,100.00
2022-10-18T03:18:56.175Z,100.00
2022-10-18T03:21:23.045Z,100.00
2022-10-18T03:23:49.653Z,100.00
2022-10-18T03:26:16.474Z,100.00
2022-10-18T03:28:43.338Z,100.00
2022-10-18T03:31:09.899Z,99.99
2022-10-18T03:33:36.774Z,100.00
2022-10-18T03:36:03.796Z,100.00
2022-10-18T03:38:30.729Z,100.00
2022-10-18T03:40:57.257Z,99.99
2022-10-18T03:43:24.050Z,99.84
2022-10-18T03:45:51.094Z,99.83
2022-10-18T03:48:17.740Z,99.64
2022-10-18T03:50:44.460Z,99.31
2022-10-18T03:53:12.204Z,99.33
2022-10-18T03:55:39.430Z,99.08
2022-10-18T03:58:06.338Z,98.86
2022-10-18T04:00:33.335Z,98.70
2022-10-18T04:03:00.098Z,98.97
2022-10-18T04:05:30.198Z,98.96
2022-10-18T04:07:57.447Z,98.83
2022-10-18T04:10:24.505Z,98.60
2022-10-18T04:12:51.222Z,98.35
2022-10-18T04:15:18.034Z,98.41
2022-10-18T04:17:44.871Z,98.35
2022-10-18T04:20:12.115Z,98.11
2022-10-18T04:22:38.813Z,98.37
2022-10-18T04:25:05.568Z,98.20
2022-10-18T04:27:32.560Z,98.13
2022-10-18T04:30:00.184Z,98.08
2022-10-18T04:32:28.948Z,97.84
2022-10-18T04:34:55.625Z,98.00
2022-10-18T04:37:22.457Z,97.95
2022-10-18T04:39:52.725Z,97.70
2022-10-18T04:42:22.014Z,98.03
2022-10-18T04:44:49.079Z,97.87
2022-10-18T04:47:16.749Z,97.76
2022-10-18T04:49:43.375Z,98.04
2022-10-18T04:52:11.370Z,98.03
2022-10-18T04:54:38.348Z,97.87
2022-10-18T04:57:04.908Z,97.89
2022-10-18T04:59:31.658Z,97.78
2022-10-18T05:01:58.756Z,97.64
2022-10-18T05:04:25.486Z,97.75
2022-10-18T05:06:52.310Z,97.91
2022-10-18T05:09:18.977Z,97.66
2022-10-18T05:11:46.057Z,97.60
2022-10-18T05:14:12.900Z,97.64
2022-10-18T05:16:39.388Z,97.31
2022-10-18T05:19:06.018Z,97.44
2022-10-18T05:21:33.376Z,97.60
2022-10-18T05:24:00.284Z,97.49
2022-10-18T05:26:27.170Z,97.53
2022-10-18T05:28:54.070Z,97.73
2022-10-18T05:31:21.024Z,97.97
2022-10-18T05:33:48.039Z,97.87
2022-10-18T05:36:14.778Z,97.87
2022-10-18T05:38:42.476Z,97.93
2022-10-18T05:41:09.598Z,97.84
2022-10-18T05:43:36.438Z,97.71
2022-10-18T05:46:04.398Z,97.67
2022-10-18T05:48:31.446Z,97.42
2022-10-18T05:50:59.406Z,97.30
2022-10-18T05:53:41.915Z,96.99
2022-10-18T05:56:11.378Z,96.77
2022-10-18T05:58:39.085Z,96.53
2022-10-18T06:01:06.869Z,96.34
2022-10-18T06:03:33.990Z,96.18
2022-10-18T06:06:07.807Z,95.75
2022-10-18T06:08:35.019Z,95.49
2022-10-18T06:11:13.211Z,94.94
2022-10-18T06:13:44.735Z,94.38
2022-10-18T06:16:13.548Z,93.76
2022-10-18T06:18:40.570Z,93.42
2022-10-18T06:21:08.129Z,92.43
2022-10-18T06:23:35.315Z,91.50
2022-10-18T06:26:05.087Z,90.68
2022-10-18T06:28:35.106Z,89.93
2022-10-18T06:31:02.774Z,89.98
2022-10-18T06:33:35.054Z,89.27
2022-10-18T06:36:23.908Z,88.94
2022-10-18T06:38:50.657Z,88.71
2022-10-18T06:41:19.411Z,87.39
2022-10-18T06:43:50.374Z,86.49
2022-10-18T06:46:16.958Z,86.02
2022-10-18T06:48:44.223Z,85.30
2022-10-18T06:51:11.427Z,85.06
2022-10-18T06:53:44.205Z,84.11
2022-10-18T06:56:20.145Z,84.12
2022-10-18T06:58:47.131Z,83.89
2022-10-18T07:01:16.610Z,83.65
2022-10-18T07:03:44.894Z,82.64
2022-10-18T07:06:14.276Z,81.79
2022-10-18T07:08:41.362Z,81.97
2022-10-18T07:11:13.574Z,81.07
2022-10-18T07:13:40.490Z,81.06
2022-10-18T07:16:17.280Z,80.35
2022-10-18T07:18:49.276Z,79.88
2022-10-18T07:21:19.190Z,80.01
2022-10-18T07:23:46.118Z,78.88
2022-10-18T07:26:18.637Z,78.29
2022-10-18T07:28:48.773Z,78.13
2022-10-18T07:31:15.470Z,78.23
2022-10-18T07:33:45.032Z,77.42
2022-10-18T07:36:13.115Z,76.57
2022-10-18T07:38:40.690Z,75.52
2022-10-18T07:41:12.000Z,73.10
2022-10-18T07:43:45.228Z,72.01
2022-10-18T07:46:14.767Z,70.24
2022-10-18T07:48:41.493Z,70.34
2022-10-18T07:51:08.610Z,69.56
2022-10-18T07:53:36.157Z,69.17
2022-10-18T07:56:09.672Z,69.27
2022-10-18T07:58:37.067Z,67.08
2022-10-18T08:01:05.630Z,66.27
2022-10-18T08:03:33.177Z,64.93
2022-10-18T08:06:00.208Z,64.79
2022-10-18T08:08:27.575Z,64.96
2022-10-18T08:10:54.175Z,64.24
2022-10-18T08:13:21.225Z,63.83
2022-10-18T08:15:47.964Z,63.57
2022-10-18T08:18:14.659Z,62.80
2022-10-18T08:20:45.284Z,62.94
2022-10-18T08:23:12.217Z,63.36
2022-10-18T08:25:39.375Z,62.34
2022-10-18T08:28:06.680Z,62.65
2022-10-18T08:30:36.038Z,61.92
2022-10-18T08:33:03.061Z,60.99
2022-10-18T08:35:31.445Z,59.91
2022-10-18T08:37:58.865Z,59.72
2022-10-18T08:40:27.069Z,60.41
2022-10-18T08:43:21.850Z,59.80
2022-10-18T08:45:51.007Z,56.79
2022-10-18T08:48:43.060Z,53.54
2022-10-18T08:51:28.675Z,52.52
2022-10-18T08:54:23.344Z,52.25
2022-10-18T08:57:00.216Z,53.29
2022-10-18T08:59:37.225Z,52.75
2022-10-18T09:02:09.865Z,52.41
2022-10-18T09:04:42.514Z,50.14
2022-10-18T09:07:25.125Z,50.29
2022-10-18T09:10:20.170Z,51.58
2022-10-18T09:13:14.680Z,50.19
2022-10-18T09:15:48.563Z,48.98
2022-10-18T09:18:52.443Z,46.96
2022-10-18T09:21:54.964Z,46.82
2022-10-18T09:25:10.818Z,47.47
2022-10-18T09:27:55.579Z,47.62
2022-10-18T09:30:31.224Z,46.01
2022-10-18T09:33:00.724Z,44.53
2022-10-18T09:35:29.312Z,44.58
2022-10-18T09:38:15.612Z,44.96
2022-10-18T09:40:58.318Z,45.04
2022-10-18T09:43:47.339Z,44.17
2022-10-18T09:46:15.654Z,42.94
2022-10-18T09:48:49.037Z,43.31
2022-10-18T09:51:22.718Z,44.37
2022-10-18T09:54:24.749Z,45.25
2022-10-18T09:57:17.777Z,43.96
2022-10-18T09:59:49.159Z,41.93
2022-10-18T10:02:20.425Z,40.46
2022-10-18T10:04:48.568Z,38.78
2022-10-18T10:07:23.785Z,39.10
2022-10-18T10:10:08.343Z,38.08
2022-10-18T10:12:37.798Z,37.18
2022-10-18T10:15:29.522Z,35.85
2022-10-18T10:18:23.385Z,35.01
2022-10-18T10:20:56.285Z,34.53
2022-10-18T10:23:36.142Z,34.16
2022-10-18T10:26:34.097Z,36.56
2022-10-18T10:29:01.314Z,40.30
2022-10-18T10:31:44.694Z,42.96
2022-10-18T10:34:14.400Z,44.09
2022-10-18T10:36:50.736Z,44.02
2022-10-18T10:39:19.575Z,42.59
2022-10-18T10:41:52.757Z,41.17
2022-10-18T10:44:23.098Z,40.14
2022-10-18T10:46:51.503Z,40.56
2022-10-18T10:49:41.270Z,41.17
2022-10-18T10:52:34.865Z,40.32
2022-10-18T10:55:23.252Z,41.47
2022-10-18T10:57:52.282Z,42.24
2022-10-18T11:00:45.345Z,43.47
2022-10-18T11:03:29.517Z,44.88
2022-10-18T11:06:00.424Z,45.47
2022-10-18T11:08:36.025Z,45.76
2022-10-18T11:11:32.575Z,46.61
2022-10-18T11:14:26.596Z,44.57
2022-10-18T11:17:15.357Z,42.06
2022-10-18T11:20:09.116Z,40.73
2022-10-18T11:22:59.662Z,40.08
2022-10-18T11:25:59.079Z,40.05
2022-10-18T11:28:52.639Z,39.60
2022-10-18T11:31:47.274Z,39.12
2022-10-18T11:34:38.850Z,39.27
2022-10-18T11:37:30.339Z,39.82
2022-10-18T11:40:38.951Z,39.87
2022-10-18T11:43:17.561Z,39.65
2022-10-18T11:45:56.443Z,41.40
2022-10-18T11:48:45.141Z,43.33
2022-10-18T11:51:33.930Z,44.31
2022-10-18T11:54:47.960Z,44.81
2022-10-18T11:57:36.071Z,45.41
2022-10-18T12:00:21.280Z,46.65
2022-10-18T12:03:03.753Z,46.78
2022-10-18T12:05:34.738Z,45.76
2022-10-18T12:08:13.340Z,46.07
2022-10-18T12:10:59.922Z,45.25
2022-10-18T12:13:57.379Z,44.59
2022-10-18T12:16:49.998Z,46.01
2022-10-18T12:19:27.556Z,48.38
2022-10-18T12:22:14.110Z,50.53
2022-10-18T12:24:41.667Z,52.13
2022-10-18T12:27:13.259Z,53.43
2022-10-18T12:29:50.524Z,54.05
2022-10-18T12:32:24.595Z,54.77
2022-10-18T12:35:11.067Z,56.00
2022-10-18T12:37:49.555Z,57.56
2022-10-18T12:40:21.641Z,58.70
2022-10-18T12:42:51.849Z,58.70
2022-10-18T12:45:35.503Z,58.56
2022-10-18T12:48:35.953Z,58.46
2022-10-18T12:51:21.358Z,59.48
2022-10-18T12:53:59.744Z,60.48
2022-10-18T12:56:29.518Z,61.04
2022-10-18T12:59:14.747Z,60.83
2022-10-18T13:01:50.622Z,61.05
2022-10-18T13:04:33.162Z,61.72
2022-10-18T13:07:07.434Z,61.88
2022-10-18T13:09:36.376Z,62.23
2022-10-18T13:12:09.426Z,61.87
2022-10-18T13:15:12.380Z,61.81
2022-10-18T13:18:05.090Z,62.55
2022-10-18T13:20:41.658Z,62.83
2022-10-18T13:23:39.289Z,62.60
2022-10-18T13:26:54.173Z,62.90
2022-10-18T13:29:59.011Z,63.27
2022-10-18T13:32:36.189Z,63.27
2022-10-18T13:35:03.198Z,63.91
2022-10-18T13:37:30.304Z,64.26
2022-10-18T13:40:23.968Z,64.06
2022-10-18T13:42:50.889Z,64.53
2022-10-18T13:45:52.169Z,64.28
2022-10-18T13:48:30.609Z,64.81
2022-10-18T13:51:12.446Z,64.95
2022-10-18T13:53:57.708Z,64.96
2022-10-18T13:56:36.567Z,65.18
2022-10-18T13:59:31.547Z,65.43
2022-10-18T14:02:30.692Z,65.74
2022-10-18T14:05:25.177Z,65.69
2022-10-18T14:08:04.677Z,65.87
2022-10-18T14:11:04.954Z,65.85
2022-10-18T14:14:01.952Z,66.37
2022-10-18T14:16:54.598Z,66.95
2022-10-18T14:19:48.887Z,66.55
2022-10-18T14:22:28.454Z,66.92
2022-10-18T14:24:58.024Z,66.81
2022-10-18T14:27:28.009Z,67.66
2022-10-18T14:30:15.589Z,68.26
2022-10-18T14:32:55.338Z,68.74
2022-10-18T14:35:33.284Z,69.41
2022-10-18T14:38:01.835Z,69.63
2022-10-18T14:40:35.402Z,70.03
2022-10-18T14:43:13.747Z,70.07
2022-10-18T14:45:42.195Z,70.38
2022-10-18T14:48:21.881Z,70.73
2022-10-18T14:50:59.890Z,71.10
2022-10-18T14:53:32.189Z,71.50
2022-10-18T14:56:03.968Z,71.49
2022-10-18T14:58:34.248Z,71.48
2022-10-18T15:01:01.041Z,71.73
2022-10-18T15:03:32.516Z,72.29
2022-10-18T15:06:01.960Z,72.72
2022-10-18T15:08:56.364Z,73.07
2022-10-18T15:11:25.426Z,73.78
2022-10-18T15:14:17.443Z,74.34
2022-10-18T15:16:44.849Z,75.27
2022-10-18T15:19:14.094Z,75.91
2022-10-18T15:25:11.202Z,76.26
2022-10-18T15:27:39.597Z,76.07
2022-10-18T15:30:28.383Z,76.07
2022-10-18T15:33:00.664Z,75.63
2022-10-18T15:35:41.412Z,76.03
2022-10-18T15:38:33.432Z,76.22
2022-10-18T15:41:00.217Z,77.39
2022-10-18T15:43:27.120Z,78.55
2022-10-18T15:45:58.913Z,80.39
2022-10-18T15:48:41.337Z,82.17
2022-10-18T15:51:46.123Z,84.61
2022-10-18T15:54:28.872Z,87.38
2022-10-18T15:56:56.309Z,90.48
2022-10-18T15:59:30.314Z,93.10
2022-10-18T16:01:57.476Z,94.79
2022-10-18T16:04:30.710Z,96.21
2022-10-18T16:06:58.814Z,96.92
2022-10-18T16:09:45.773Z,98.10
2022-10-18T16:12:12.492Z,99.12
2022-10-18T16:14:44.860Z,98.95
2022-10-18T16:17:16.898Z,99.47
2022-10-18T16:19:44.215Z,99.90
2022-10-18T16:24:40.145Z,100.00
2022-10-18T16:27:06.831Z,100.00
2022-10-18T16:29:34.081Z,100.00
2022-10-18T16:32:00.727Z,100.00
2022-10-18T16:34:31.882Z,100.00
2022-10-18T16:36:58.817Z,100.00
2022-10-18T16:39:25.733Z,100.00
2022-10-18T16:41:52.294Z,100.00
2022-10-18T16:44:19.283Z,100.00
2022-10-18T16:46:46.550Z,100.00
2022-10-18T16:49:25.233Z,100.00
2022-10-18T16:51:53.334Z,100.00
2022-10-18T16:54:20.476Z,100.00
2022-10-18T16:56:49.580Z,100.00
2022-10-18T16:59:31.041Z,100.00
2022-10-18T17:01:58.218Z,100.00
2022-10-18T17:04:24.958Z,100.00
2022-10-18T17:06:54.220Z,100.00
2022-10-18T17:09:21.185Z,100.00
2022-10-18T17:11:47.924Z,100.00
2022-10-18T17:14:14.520Z,100.00
2022-10-18T17:16:42.896Z,100.00
2022-10-18T17:19:11.865Z,100.00
2022-10-18T17:21:38.592Z,100.00
2022-10-18T17:24:06.032Z,100.00
2022-10-18T17:26:33.658Z,100.00
2022-10-18T17:29:04.484Z,100.00
2022-10-18T17:31:32.329Z,100.00
2022-10-18T17:34:01.227Z,100.00
2022-10-18T17:36:29.725Z,100.00
2022-10-18T17:38:57.092Z,100.00
2022-10-18T17:41:23.841Z,100.00
2022-10-18T17:43:50.475Z,100.00
2022-10-18T17:46:17.330Z,100.00
2022-10-18T17:48:44.766Z,100.00
2022-10-18T17:51:14.835Z,100.00
2022-10-18T17:53:41.982Z,100.00
2022-10-18T17:56:10.504Z,100.00
2022-10-18T17:58:37.247Z,100.00
2022-10-18T18:01:13.150Z,100.00
2022-10-18T18:03:40.854Z,100.00
2022-10-18T18:06:30.446Z,100.00
2022-10-18T18:08:58.851Z,100.00
2022-10-18T18:11:26.092Z,100.00
2022-10-18T18:13:54.970Z,100.00
2022-10-18T18:16:25.937Z,100.00
2022-10-18T18:18:54.418Z,100.00
2022-10-18T18:21:22.632Z,100.00
2022-10-18T18:23:50.221Z,100.00
2022-10-18T18:26:17.789Z,100.00
2022-10-18T18:28:45.101Z,100.00
2022-10-18T18:31:18.704Z,100.00
2022-10-18T18:33:45.848Z,100.00
2022-10-18T18:36:12.779Z,100.00
2022-10-18T18:38:42.155Z,100.00
2022-10-18T18:41:16.154Z,100.00
2022-10-18T18:43:55.518Z,100.00
2022-10-18T18:46:22.705Z,100.00
2022-10-18T18:48:49.762Z,100.00
2022-10-18T18:51:19.728Z,100.00
2022-10-18T18:53:48.375Z,100.00
2022-10-18T18:56:18.017Z,100.00
2022-10-18T18:58:45.993Z,100.00
2022-10-18T19:01:18.605Z,100.00
2022-10-18T19:03:47.135Z,100.00
2022-10-18T19:06:17.965Z,100.00
2022-10-18T19:08:45.784Z,100.00
2022-10-18T19:11:25.124Z,100.00
2022-10-18T19:13:51.907Z,100.00
2022-10-18T19:16:24.179Z,100.00
2022-10-18T19:18:56.906Z,100.00
2022-10-18T19:21:27.137Z,100.00
2022-10-18T19:23:55.728Z,100.00
2022-10-18T19:26:50.355Z,100.00
2022-10-18T19:29:27.099Z,100.00
2022-10-18T19:31:56.528Z,100.00
2022-10-18T19:34:25.262Z,100.00
2022-10-18T19:36:52.334Z,100.00
2022-10-18T19:39:24.474Z,100.00
2022-10-18T19:41:54.841Z,100.00
2022-10-18T19:44:23.777Z,100.00
2022-10-18T19:46:50.828Z,100.00
2022-10-18T19:49:17.704Z,100.00
2022-10-18T19:51:44.530Z,100.00
2022-10-18T19:54:12.562Z,100.00
2022-10-18T19:56:41.105Z,100.00
2022-10-18T19:59:09.095Z,100.00
2022-10-18T20:01:36.546Z,100.00
2022-10-18T20:04:04.265Z,100.00
2022-10-18T20:06:31.430Z,100.00
2022-10-18T20:08:58.014Z,100.00
2022-10-18T20:11:26.763Z,100.00
2022-10-18T20:13:53.793Z,100.00
2022-10-18T20:16:27.829Z,100.00
2022-10-18T20:19:11.172Z,100.00
2022-10-18T20:21:39.235Z,100.00
2022-10-18T20:24:07.021Z,100.00
2022-10-18T20:26:35.388Z,100.00
2022-10-18T20:29:03.400Z,100.00
2022-10-18T20:31:33.360Z,100.00
2022-10-18T20:34:02.545Z,100.00
2022-10-18T20:36:31.678Z,100.00
2022-10-18T20:38:58.591Z,100.00
2022-10-18T20:41:30.905Z,100.00
2022-10-18T20:44:03.576Z,100.00
2022-10-18T20:46:32.348Z,100.00
2022-10-18T20:48:59.175Z,100.00
2022-10-18T20:51:26.094Z,100.00
2022-10-18T20:53:53.491Z,100.00
2022-10-18T20:56:22.833Z,100.00
2022-10-18T20:58:51.392Z,100.00
2022-10-18T21:01:28.804Z,100.00
2022-10-18T21:03:58.435Z,100.00
2022-10-18T21:06:28.944Z,100.00
2022-10-18T21:08:57.909Z,100.00
2022-10-18T21:11:25.656Z,100.00
2022-10-18T21:13:55.032Z,100.00
2022-10-18T21:16:21.750Z,100.00
2022-10-18T21:18:48.673Z,100.00
2022-10-18T21:21:18.070Z,100.00
2022-10-18T21:23:46.443Z,100.00
2022-10-18T21:26:15.640Z,100.00
2022-10-18T21:28:42.462Z,100.00
2022-10-18T21:31:12.367Z,100.00
2022-10-18T21:33:41.634Z,100.00
2022-10-18T21:36:09.523Z,100.00
2022-10-18T21:38:36.499Z,100.00
2022-10-18T21:41:09.460Z,100.00
2022-10-18T21:43:40.789Z,100.00
2022-10-18T21:46:09.532Z,100.00
2022-10-18T21:48:37.470Z,100.00
2022-10-18T21:51:07.980Z,100.00
2022-10-18T21:53:43.213Z,100.00
2022-10-18T21:56:13.163Z,100.00
2022-10-18T21:58:41.147Z,100.00
2022-10-18T22:01:15.358Z,100.00
2022-10-18T22:03:44.009Z,100.00
2022-10-18T22:06:14.618Z,100.00
2022-10-18T22:08:50.226Z,100.00
2022-10-18T22:11:19.928Z,100.00
2022-10-18T22:13:47.014Z,100.00
2022-10-18T22:16:15.743Z,100.00
2022-10-18T22:18:47.811Z,100.00
2022-10-18T22:21:17.456Z,100.00
2022-10-18T22:23:47.025Z,100.00
2022-10-18T22:26:27.099Z,100.00
2022-10-18T22:29:03.283Z,100.00
2022-10-18T22:31:49.722Z,100.00
2022-10-18T22:34:19.240Z,100.00
2022-10-18T22:36:46.260Z,100.00
2022-10-18T22:39:14.791Z,100.00
2022-10-18T22:41:42.105Z,100.00
2022-10-18T22:44:11.923Z,100.00
2022-10-18T22:46:39.444Z,100.00
2022-10-18T22:49:06.413Z,100.00
2022-10-18T22:54:00.314Z,100.00
2022-10-18T22:56:27.050Z,100.00
2022-10-18T22:58:53.669Z,100.00
2022-10-18T23:01:22.980Z,100.00
2022-10-18T23:03:54.503Z,100.00
2022-10-18T23:06:30.040Z,100.00
2022-10-18T23:08:58.885Z,100.00
2022-10-18T23:11:27.629Z,100.00
2022-10-18T23:13:54.569Z,100.00
2022-10-18T23:16:21.428Z,100.00
2022-10-18T23:18:53.929Z,100.00
2022-10-18T23:21:23.722Z,100.00
2022-10-18T23:23:51.526Z,100.00
2022-10-18T23:26:21.786Z,100.00
2022-10-18T23:28:50.319Z,100.00
2022-10-18T23:31:23.495Z,100.00
2022-10-18T23:33:52.497Z,100.00
2022-10-18T23:36:19.814Z,100.00
2022-10-18T23:38:46.536Z,100.00
2022-10-18T23:41:14.890Z,100.00
2022-10-18T23:43:42.757Z,100.00
2022-10-18T23:46:10.236Z,100.00
2022-10-18T23:48:36.838Z,100.00
2022-10-18T23:51:04.008Z,100.00
2022-10-18T23:53:31.159Z,100.00
2022-10-18T23:56:03.897Z,100.00
2022-10-18T23:58:32.350Z,100.00
